Time;durP1;ratioP1;P1;durP2;ratioP2;P2;SDS_P1;SDS_P2;PMS_P1;PMS_P2;Temp;Humidity;BMP_temperature;BMP_pressure;BME280_temperature;BME280_humidity;BME280_pressure;Samples;Min_cycle;Max_cycle;Signal;HPM_P1;HPM_P2
2021/05/18 00:00:40;;;;;;;2.05;1.00;;;;;;;11.27;89.65;99138.31;5074997;28;20048;-72
2021/05/18 00:03:15;;;;;;;3.50;1.00;;;;;;;11.32;88.23;99138.81;5074736;28;20040;-73
2021/05/18 00:05:46;;;;;;;3.10;0.95;;;;;;;11.33;88.45;99135.16;5074490;28;20476;-73
2021/05/18 00:08:15;;;;;;;3.70;1.15;;;;;;;11.28;88.51;99136.50;5074475;28;20044;-72
2021/05/18 00:13:38;;;;;;;1.50;0.90;;;;;;;11.25;88.07;99142.94;5074674;28;20047;-72
2021/05/18 00:16:07;;;;;;;4.93;0.98;;;;;;;11.28;87.60;99139.16;5074563;28;20032;-75
2021/05/18 00:18:36;;;;;;;2.47;0.90;;;;;;;11.24;87.61;99143.06;5074568;28;20043;-74
2021/05/18 00:21:05;;;;;;;2.47;0.90;;;;;;;11.22;87.67;99148.53;5074103;28;20075;-74
2021/05/18 00:23:36;;;;;;;1.42;0.95;;;;;;;11.21;87.09;99146.84;5074706;28;20049;-73
2021/05/18 00:26:05;;;;;;;3.08;0.85;;;;;;;11.26;86.31;99149.13;5074230;28;20071;-74
2021/05/18 00:28:33;;;;;;;1.02;0.80;;;;;;;11.18;86.92;99145.25;5074333;28;20086;-73
2021/05/18 00:31:01;;;;;;;3.33;0.98;;;;;;;11.28;85.79;99153.34;5073089;28;20056;-73
2021/05/18 00:33:30;;;;;;;1.55;1.05;;;;;;;11.24;85.32;99151.06;5074220;28;20140;-71
2021/05/18 00:35:59;;;;;;;1.17;0.70;;;;;;;11.19;84.99;99154.09;5074589;28;20056;-72
2021/05/18 00:38:27;;;;;;;2.03;0.70;;;;;;;11.23;84.25;99147.56;5074104;28;20121;-73
2021/05/18 00:40:55;;;;;;;1.38;0.70;;;;;;;11.15;84.40;99139.31;5072611;28;20456;-73
2021/05/18 00:43:24;;;;;;;1.83;0.65;;;;;;;11.20;83.80;99153.16;5073726;28;20044;-74
2021/05/18 00:45:53;;;;;;;1.65;0.90;;;;;;;11.25;83.62;99142.94;5072552;28;20497;-74
2021/05/18 00:48:22;;;;;;;3.15;0.73;;;;;;;11.19;83.63;99159.44;5073430;28;20040;-72
2021/05/18 00:50:54;;;;;;;1.23;0.68;;;;;;;11.21;83.56;99162.84;5074310;28;20040;-74
2021/05/18 00:53:23;;;;;;;0.88;0.70;;;;;;;11.27;82.67;99172.16;5073741;28;20079;-73
2021/05/18 00:55:54;;;;;;;2.42;0.73;;;;;;;11.23;82.42;99168.91;5073848;28;20044;-72
2021/05/18 00:58:29;;;;;;;0.50;0.50;;;;;;;11.13;81.90;99149.25;5073841;28;20098;-72
2021/05/18 01:01:01;;;;;;;1.65;0.60;;;;;;;11.21;82.87;99172.69;5072682;28;20394;-72
2021/05/18 01:03:30;;;;;;;3.60;0.60;;;;;;;11.23;82.47;99182.25;5073941;28;20063;-71
2021/05/18 01:08:44;;;;;;;1.25;0.80;;;;;;;11.22;80.92;99182.38;5072261;28;20135;-73
2021/05/18 01:11:14;;;;;;;2.28;0.60;;;;;;;11.15;82.12;99179.34;5073638;28;20091;-73
2021/05/18 01:13:42;;;;;;;8.98;1.02;;;;;;;11.11;81.68;99181.41;5074097;28;20040;-74
2021/05/18 01:16:11;;;;;;;2.08;0.63;;;;;;;11.06;82.88;99185.41;5073255;28;20044;-74
2021/05/18 01:18:42;;;;;;;1.42;0.65;;;;;;;11.11;82.09;99197.44;5072650;28;20051;-73
2021/05/18 01:21:12;;;;;;;2.13;0.63;;;;;;;11.03;82.54;99177.66;5073243;28;20088;-73
2021/05/18 01:23:42;;;;;;;2.00;0.65;;;;;;;11.05;82.41;99184.56;5073515;28;20064;-73
2021/05/18 01:26:11;;;;;;;1.98;0.60;;;;;;;11.05;82.34;99194.38;5073159;28;20055;-72
2021/05/18 01:28:39;;;;;;;2.92;0.57;;;;;;;11.04;82.56;99198.03;5073370;28;20040;-71
2021/05/18 01:31:11;;;;;;;0.80;0.70;;;;;;;11.05;81.21;99181.88;5073004;28;20047;-72
2021/05/18 01:33:41;;;;;;;2.53;0.85;;;;;;;11.13;80.60;99203.50;5073185;28;20068;-72
2021/05/18 01:36:12;;;;;;;3.05;0.80;;;;;;;11.08;81.36;99199.47;5072896;28;20044;-72
2021/05/18 01:38:44;;;;;;;0.65;0.40;;;;;;;11.01;81.53;99192.94;5073010;28;20093;-71
2021/05/18 01:44:00;;;;;;;1.90;0.60;;;;;;;11.05;80.83;99202.38;5073382;28;20434;-71
2021/05/18 01:46:31;;;;;;;0.77;0.45;;;;;;;11.01;80.68;99204.47;5072917;28;20075;-73
2021/05/18 01:49:04;;;;;;;1.90;0.60;;;;;;;11.05;80.80;99215.72;5072988;28;20063;-73
2021/05/18 01:51:36;;;;;;;0.85;0.40;;;;;;;11.02;81.06;99202.66;5073127;28;20091;-73
2021/05/18 01:54:06;;;;;;;0.70;0.32;;;;;;;11.02;80.04;99232.00;5072946;28;20051;-71
2021/05/18 01:56:45;;;;;;;1.00;0.32;;;;;;;11.02;80.20;99214.16;5073001;28;20040;-70
2021/05/18 01:59:17;;;;;;;0.98;0.50;;;;;;;11.05;80.05;99215.72;5072837;28;20087;-70
2021/05/18 02:01:48;;;;;;;0.67;0.33;;;;;;;11.05;79.58;99211.25;5073244;28;20378;-74
2021/05/18 02:04:24;;;;;;;2.30;0.70;;;;;;;11.01;80.09;99212.47;5072590;28;20047;-74
2021/05/18 02:06:54;;;;;;;0.20;0.20;;;;;;;11.00;79.38;99215.22;5073073;28;20111;-74
2021/05/18 02:09:22;;;;;;;0.70;0.40;;;;;;;10.98;79.81;99201.16;5072734;28;20385;-75
2021/05/18 02:11:50;;;;;;;0.45;0.40;;;;;;;11.02;79.01;99235.50;5073028;28;20492;-74
2021/05/18 02:14:24;;;;;;;1.15;0.60;;;;;;;10.89;79.01;99219.59;5073231;28;20466;-74
2021/05/18 02:16:55;;;;;;;0.68;0.30;;;;;;;10.95;79.41;99225.44;5073246;28;20044;-74
2021/05/18 02:19:40;;;;;;;1.45;0.40;;;;;;;10.92;78.88;99220.34;5072716;28;20052;-74
2021/05/18 02:25:04;;;;;;;0.50;0.40;;;;;;;10.99;78.95;99226.88;5073049;28;20071;-76
2021/05/18 02:27:32;;;;;;;1.05;0.60;;;;;;;10.95;79.02;99225.44;5072980;28;20492;-77
2021/05/18 02:30:00;;;;;;;0.90;0.43;;;;;;;10.97;78.69;99212.81;5075107;28;20447;-75
2021/05/18 02:32:30;;;;;;;0.40;0.25;;;;;;;10.95;78.42;99228.09;5076189;28;20051;-74
2021/05/18 02:34:58;;;;;;;4.68;0.57;;;;;;;11.01;78.05;99227.63;5076738;28;20397;-75
2021/05/18 02:37:27;;;;;;;1.08;0.60;;;;;;;11.00;78.36;99233.91;5074911;28;20045;-74
2021/05/18 02:39:54;;;;;;;0.85;0.40;;;;;;;10.99;78.36;99226.88;5076442;28;20542;-74
2021/05/18 02:42:22;;;;;;;2.13;0.45;;;;;;;10.93;78.27;99232.72;5076141;28;20120;-74
2021/05/18 02:44:56;;;;;;;1.20;0.50;;;;;;;10.98;78.02;99230.50;5076922;28;20447;-75
2021/05/18 02:50:12;;;;;;;0.20;0.20;;;;;;;10.97;77.52;99226.16;5076165;28;20101;-76
2021/05/18 02:52:43;;;;;;;0.80;0.43;;;;;;;10.95;77.59;99226.28;5076361;28;20041;-73
2021/05/18 02:55:16;;;;;;;1.33;0.65;;;;;;;11.03;77.82;99239.03;5075926;28;20044;-75
2021/05/18 02:57:46;;;;;;;1.40;0.32;;;;;;;10.80;78.16;99222.97;5076510;28;20439;-73
2021/05/18 03:00:17;;;;;;;1.13;0.80;;;;;;;10.95;78.13;99231.63;5074844;28;20143;-75
2021/05/18 03:02:46;;;;;;;0.60;0.50;;;;;;;10.97;77.96;99243.00;5076307;28;20098;-75
2021/05/18 03:05:14;;;;;;;1.10;0.60;;;;;;;10.98;77.94;99246.53;5075765;28;20044;-75
2021/05/18 03:07:42;;;;;;;2.08;0.60;;;;;;;11.01;77.43;99254.31;5076285;28;20119;-74
2021/05/18 03:10:12;;;;;;;1.67;0.70;;;;;;;10.41;77.30;99156.72;5076785;28;20041;-84
2021/05/18 03:12:40;;;;;;;1.95;0.65;;;;;;;10.95;78.13;99268.13;5086600;28;20052;-79
2021/05/18 03:15:09;;;;;;;1.55;0.60;;;;;;;10.99;77.39;99258.91;5081826;28;20094;-75
2021/05/18 03:17:37;;;;;;;0.80;0.47;;;;;;;10.99;77.49;99288.25;5079085;28;20044;-78
2021/05/18 03:20:07;;;;;;;0.65;0.57;;;;;;;10.95;77.86;99289.47;5076803;28;20098;-77
2021/05/18 03:22:35;;;;;;;0.70;0.50;;;;;;;10.94;77.64;99271.75;5075959;28;20106;-77
2021/05/18 03:25:08;;;;;;;0.80;0.60;;;;;;;10.99;77.05;99288.25;5076189;28;20041;-77
2021/05/18 03:27:36;;;;;;;2.80;0.57;;;;;;;10.86;77.89;99273.19;5074848;28;20109;-78
2021/05/18 03:30:17;;;;;;;2.85;0.77;;;;;;;10.94;77.46;99287.75;5075590;28;20078;-77
2021/05/18 03:35:31;;;;;;;1.90;0.60;;;;;;;10.93;78.01;99291.41;5075593;28;20079;-76
2021/05/18 03:38:03;;;;;;;1.88;0.63;;;;;;;10.89;78.34;99293.44;5075732;28;20090;-75
2021/05/18 03:40:33;;;;;;;2.08;0.70;;;;;;;10.88;78.44;99284.59;5074343;28;20053;-75
2021/05/18 03:43:08;;;;;;;1.38;0.65;;;;;;;10.88;77.94;99311.25;5075236;28;20044;-74
2021/05/18 03:45:39;;;;;;;3.63;0.73;;;;;;;10.95;77.96;99305.47;5075055;28;20045;-74
2021/05/18 03:53:51;;;;;;;1.17;0.80;;;;;;;10.95;77.81;99321.47;5075820;28;20114;-77
2021/05/18 04:02:40;;;;;;;2.28;0.50;;;;;;;10.95;77.67;99332.16;5075379;28;20087;-75
2021/05/18 04:04:48;;;;;;;2.30;0.70;;;;;;;10.97;77.78;99324.88;5073877;28;20053;-75
2021/05/18 04:10:18;;;;;;;3.45;0.80;;;;;;;11.08;76.91;99336.44;5075397;28;20072;-75
2021/05/18 04:12:50;;;;;;;1.55;0.65;;;;;;;10.83;76.90;99296.59;5075132;28;20408;-78
2021/05/18 04:18:08;;;;;;;0.63;0.63;;;;;;;11.09;77.61;99340.78;5074773;28;20481;-76
2021/05/18 04:20:45;;;;;;;2.05;0.80;;;;;;;11.23;76.82;99345.09;5075349;28;20080;-76
2021/05/18 04:23:25;;;;;;;1.75;0.70;;;;;;;11.26;77.01;99349.31;5075002;28;20051;-77
2021/05/18 04:51:11;;;;;;;5.55;1.00;;;;;;;11.78;74.15;99380.00;5073988;28;20123;-74
2021/05/18 04:54:00;;;;;;;1.50;0.85;;;;;;;12.03;73.68;99379.75;5073582;28;20098;-74
2021/05/18 04:59:16;;;;;;;1.38;0.80;;;;;;;11.75;73.95;99386.41;5073637;28;20401;-74
2021/05/18 05:01:54;;;;;;;1.30;0.82;;;;;;;11.83;74.17;99378.69;5073804;28;20041;-74
2021/05/18 05:07:06;;;;;;;3.53;0.90;;;;;;;11.95;73.54;99393.72;5073559;28;20493;-74
2021/05/18 05:09:39;;;;;;;4.10;0.80;;;;;;;12.71;71.03;99392.03;5073271;28;20040;-73
2021/05/18 05:14:54;;;;;;;3.50;1.00;;;;;;;14.44;64.05;99395.91;5073525;28;20041;-76
2021/05/18 05:17:26;;;;;;;1.98;0.80;;;;;;;15.29;61.53;99403.34;5073007;28;20036;-73
2021/05/18 05:19:54;;;;;;;5.10;1.10;;;;;;;15.45;60.05;99393.72;5077564;28;20401;-71
2021/05/18 05:22:22;;;;;;;2.70;0.90;;;;;;;14.73;62.51;99379.88;5074087;28;20050;-76
2021/05/18 05:24:49;;;;;;;1.05;0.50;;;;;;;14.79;62.32;99400.81;5073138;28;20041;-71
2021/05/18 05:27:17;;;;;;;3.03;0.90;;;;;;;15.62;60.51;99388.63;5073053;28;20101;-73
2021/05/18 05:30:00;;;;;;;3.60;0.98;;;;;;;14.72;61.74;99394.31;5072974;28;20405;-79
2021/05/18 05:32:29;;;;;;;1.63;0.80;;;;;;;14.15;64.75;99393.13;5058720;28;20041;-76
2021/05/18 05:34:57;;;;;;;1.48;0.90;;;;;;;13.66;66.12;99392.91;5070502;28;20049;-79
2021/05/18 05:37:25;;;;;;;6.07;0.90;;;;;;;13.51;66.72;99388.00;5053140;28;20095;-78
2021/05/18 05:39:55;;;;;;;2.28;0.80;;;;;;;13.66;66.32;99382.19;5052564;28;20048;-76
2021/05/18 05:42:24;;;;;;;2.92;0.60;;;;;;;13.08;66.84;99346.13;5056708;28;20434;-74
2021/05/18 05:44:52;;;;;;;1.85;1.00;;;;;;;13.88;65.73;99377.63;5072030;28;20072;-74
2021/05/18 05:47:20;;;;;;;4.47;1.30;;;;;;;14.15;64.18;99385.94;5072421;28;20130;-74
2021/05/18 05:49:50;;;;;;;2.78;0.77;;;;;;;13.71;65.99;99404.09;5072276;28;20041;-74
2021/05/18 05:52:20;;;;;;;1.95;1.00;;;;;;;13.82;65.98;99395.13;5070122;28;20044;-75
2021/05/18 05:54:51;;;;;;;1.70;0.88;;;;;;;13.86;65.20;99372.41;5075328;28;20496;-74
2021/05/18 05:57:20;;;;;;;2.97;0.90;;;;;;;14.27;63.97;99395.56;5072720;28;20053;-81
2021/05/18 05:59:49;;;;;;;2.13;1.05;;;;;;;14.08;64.12;99389.28;5072470;28;20182;-78
2021/05/18 06:02:17;;;;;;;1.17;0.80;;;;;;;14.05;64.51;99374.31;5072764;28;20083;-85
2021/05/18 06:04:45;;;;;;;4.80;1.08;;;;;;;14.56;62.90;99394.81;5073498;28;20032;-76
2021/05/18 06:07:14;;;;;;;1.95;0.90;;;;;;;14.78;62.27;99383.00;5072395;28;20047;-76
2021/05/18 06:09:44;;;;;;;4.18;1.20;;;;;;;15.28;60.68;99407.88;5072175;28;20066;-74
2021/05/18 06:12:24;;;;;;;2.70;1.00;;;;;;;15.38;59.51;99419.47;5072563;28;20397;-77
2021/05/18 06:15:12;;;;;;;2.58;0.80;;;;;;;16.33;57.18;99407.75;5072059;28;20044;-75
2021/05/18 06:35:18;;;;;;;4.18;0.95;;;;;;;17.77;52.23;99428.41;5072559;28;20064;-74
2021/05/18 06:43:25;;;;;;;4.03;0.88;;;;;;;16.85;55.28;99427.72;5067245;28;20110;-78
2021/05/18 06:48:36;;;;;;;2.28;0.90;;;;;;;16.50;56.25;99444.66;5072426;28;20409;-76
2021/05/18 06:51:05;;;;;;;2.45;0.85;;;;;;;17.16;54.58;99449.75;5072199;28;20047;-79
2021/05/18 06:53:33;;;;;;;3.03;0.88;;;;;;;16.86;55.10;99439.34;5072341;28;20040;-77
2021/05/18 06:56:02;;;;;;;2.97;1.20;;;;;;;16.02;58.13;99456.47;5071829;28;20044;-76
2021/05/18 07:00:06;;;;;;;2.58;0.85;;;;;;;16.01;58.46;99460.13;5055137;28;20048;-77
2021/05/18 07:01:33;;;;;;;3.30;1.13;;;;;;;16.48;56.72;99462.78;5067128;28;20489;-75
2021/05/18 07:04:05;;;;;;;1.65;0.70;;;;;;;15.55;59.23;99473.50;5054234;28;20159;-74
2021/05/18 07:06:43;;;;;;;4.00;0.80;;;;;;;15.13;60.37;99458.50;5071989;28;20040;-81
2021/05/18 07:09:12;;;;;;;2.83;1.00;;;;;;;15.89;59.23;99466.66;5058700;28;20045;-79
2021/05/18 07:11:40;;;;;;;1.58;0.80;;;;;;;15.94;58.01;99474.31;5068415;28;20045;-76
2021/05/18 07:14:08;;;;;;;2.08;0.75;;;;;;;16.19;57.99;99479.03;5057121;28;20115;-78
2021/05/18 07:16:36;;;;;;;3.03;1.10;;;;;;;16.05;58.49;99492.97;5064368;28;20041;-80
2021/05/18 07:19:05;;;;;;;1.48;0.82;;;;;;;15.94;58.00;99485.91;5068474;28;20056;-77
2021/05/18 07:21:33;;;;;;;4.57;1.00;;;;;;;15.76;59.78;99492.19;5057360;28;20510;-76
2021/05/18 07:24:01;;;;;;;3.03;0.90;;;;;;;15.52;59.12;99489.88;5071081;28;20045;-82
2021/05/18 07:26:29;;;;;;;3.35;0.80;;;;;;;15.67;58.79;99488.50;5064149;28;20048;-77
2021/05/18 07:28:58;;;;;;;2.08;0.90;;;;;;;15.34;60.01;99497.81;5063680;28;20044;-79
2021/05/18 07:31:26;;;;;;;2.30;0.70;;;;;;;15.49;59.47;99468.69;5070961;28;20098;-79
2021/05/18 07:33:54;;;;;;;3.85;0.80;;;;;;;15.53;60.17;99483.53;5071636;28;20045;-77
2021/05/18 07:36:22;;;;;;;2.65;0.68;;;;;;;15.59;60.71;99488.34;5062270;28;20040;-76
2021/05/18 07:38:50;;;;;;;1.88;0.98;;;;;;;15.55;60.00;99493.16;5075154;28;20098;-78
2021/05/18 07:41:18;;;;;;;1.02;0.52;;;;;;;14.97;61.61;99495.81;5075340;28;20429;-76
2021/05/18 07:43:46;;;;;;;2.97;0.98;;;;;;;15.21;60.78;99503.47;5058323;28;20128;-76
2021/05/18 07:46:18;;;;;;;2.30;0.70;;;;;;;14.98;61.47;99497.50;5072588;28;20413;-74
2021/05/18 07:49:08;;;;;;;2.28;0.50;;;;;;;15.35;61.13;99478.88;5078040;28;20101;-79
2021/05/18 07:51:50;;;;;;;1.92;0.95;;;;;;;15.64;59.57;99494.19;5072344;28;20136;-79
2021/05/18 07:59:52;;;;;;;4.53;1.52;;;;;;;15.64;59.93;99503.09;5071779;28;20048;-74
2021/05/18 08:05:20;;;;;;;1.65;0.90;;;;;;;15.29;60.77;99484.81;5074639;28;20057;-76
2021/05/18 08:07:52;;;;;;;2.35;0.90;;;;;;;15.65;59.05;99518.22;5064020;28;20067;-76
2021/05/18 08:10:23;;;;;;;1.42;0.85;;;;;;;15.53;60.71;99503.19;5068952;28;20037;-75
2021/05/18 08:12:51;;;;;;;0.93;0.47;;;;;;;15.13;59.37;99489.88;5065516;28;20140;-76
2021/05/18 08:15:33;;;;;;;2.53;0.63;;;;;;;15.23;60.01;99506.84;5059179;28;20056;-79
2021/05/18 08:18:09;;;;;;;1.60;0.90;;;;;;;15.59;59.51;99518.75;5054871;28;20049;-79
2021/05/18 10:34:57;;;;;;;1.17;0.90;;;;;;;16.65;57.71;99589.53;5063678;28;20132;-78
2021/05/18 10:37:37;;;;;;;2.28;0.98;;;;;;;16.79;58.63;99597.16;5068169;28;20043;-75
2021/05/18 10:40:31;;;;;;;2.50;1.27;;;;;;;16.98;56.89;99593.53;5056592;28;20098;-79
2021/05/18 10:43:07;;;;;;;3.15;1.02;;;;;;;16.95;56.95;99586.59;5072123;28;20045;-74
2021/05/18 10:46:05;;;;;;;0.90;0.73;;;;;;;16.60;55.76;99601.59;5055265;28;20033;-75
2021/05/18 10:48:56;;;;;;;2.83;1.10;;;;;;;16.45;55.16;99640.72;5063557;28;20126;-76
2021/05/18 10:51:56;;;;;;;1.50;0.82;;;;;;;15.09;61.72;99642.41;5072097;28;20404;-74
2021/05/18 10:54:29;;;;;;;1.95;1.13;;;;;;;14.97;63.18;99656.94;5062949;28;20036;-77
2021/05/18 10:57:30;;;;;;;0.88;0.57;;;;;;;14.74;65.78;99658.91;5063782;28;20037;-77
2021/05/18 11:00:00;;;;;;;1.85;0.93;;;;;;;14.76;66.34;99640.00;5047631;28;20741;-83
2021/05/18 11:02:34;;;;;;;3.30;1.00;;;;;;;15.15;63.50;99643.69;5065978;28;20049;-76
2021/05/18 11:05:08;;;;;;;1.73;0.90;;;;;;;15.38;64.40;99629.06;5068013;28;20036;-78
2021/05/18 11:07:39;;;;;;;3.30;1.10;;;;;;;15.50;63.06;99648.59;5072805;28;20040;-74
2021/05/18 11:10:13;;;;;;;2.75;1.02;;;;;;;15.31;64.09;99653.94;5060897;28;20084;-81
2021/05/18 11:12:42;;;;;;;1.35;0.90;;;;;;;14.72;63.54;99604.53;5075732;28;20064;-80
2021/05/18 11:15:12;;;;;;;2.38;1.08;;;;;;;15.07;63.10;99646.22;5061501;28;20049;-78
2021/05/18 11:17:46;;;;;;;2.92;1.27;;;;;;;15.14;62.92;99652.75;5072088;28;20047;-84
2021/05/18 11:20:23;;;;;;;2.33;0.90;;;;;;;15.37;60.65;99627.38;5061243;28;20443;-78
2021/05/18 11:25:43;;;;;;;1.60;0.90;;;;;;;15.48;59.56;99629.09;5071604;28;20067;-78
2021/05/18 11:28:19;;;;;;;1.52;0.88;;;;;;;15.73;58.49;99612.47;5060739;28;20051;-80
2021/05/18 11:30:49;;;;;;;3.30;0.82;;;;;;;15.91;57.14;99614.44;5067016;28;20493;-74
2021/05/18 11:33:20;;;;;;;3.28;0.90;;;;;;;16.35;57.48;99628.28;5075209;28;20040;-76
2021/05/18 11:36:09;;;;;;;1.85;1.00;;;;;;;16.49;56.34;99617.06;5072285;28;20051;-77
2021/05/18 11:38:39;;;;;;;3.33;1.20;;;;;;;16.69;56.63;99620.56;5055066;28;20064;-80
2021/05/18 11:41:07;;;;;;;5.40;1.40;;;;;;;16.44;55.24;99622.88;5068024;28;20458;-79
2021/05/18 11:43:36;;;;;;;4.20;1.92;;;;;;;16.81;54.98;99619.44;5058186;28;20037;-79
2021/05/18 11:46:09;;;;;;;5.00;1.20;;;;;;;16.64;55.48;99609.38;5070103;28;20044;-77
2021/05/18 11:48:40;;;;;;;2.33;1.33;;;;;;;16.85;55.28;99624.34;5063825;28;20068;-78
2021/05/18 11:51:10;;;;;;;5.35;1.15;;;;;;;16.98;55.92;99632.09;5061476;28;20300;-77
2021/05/18 11:53:40;;;;;;;3.88;1.27;;;;;;;17.06;54.68;99618.72;5071210;28;20504;-81
2021/05/18 11:56:18;;;;;;;2.20;1.42;;;;;;;17.65;54.73;99603.91;5059988;28;20047;-77
2021/05/18 11:58:46;;;;;;;3.95;1.20;;;;;;;18.01;51.93;99620.13;5064649;28;20090;-77
2021/05/18 12:01:14;;;;;;;1.45;0.85;;;;;;;18.08;51.66;99610.41;5068064;28;20058;-80
2021/05/18 12:03:42;;;;;;;4.07;0.98;;;;;;;17.73;53.21;99622.91;5074267;28;20102;-80
2021/05/18 12:06:15;;;;;;;2.88;1.00;;;;;;;17.43;54.17;99612.44;5069146;28;20044;-82
2021/05/18 12:08:44;;;;;;;1.40;0.70;;;;;;;17.21;54.72;99618.25;5064415;28;20114;-77
2021/05/18 12:11:14;;;;;;;2.33;1.10;;;;;;;17.31;53.72;99605.56;5060763;28;20135;-75
2021/05/18 12:13:43;;;;;;;2.53;1.00;;;;;;;17.06;54.45;99626.81;5070878;28;20053;-75
2021/05/18 12:16:13;;;;;;;2.47;0.98;;;;;;;17.09;54.46;99602.28;5060014;28;20040;-77
2021/05/18 12:18:42;;;;;;;2.28;1.10;;;;;;;17.17;53.53;99605.06;5064666;28;20033;-77
2021/05/18 12:21:19;;;;;;;3.03;0.98;;;;;;;17.35;53.15;99607.78;5068039;28;20064;-74
2021/05/18 12:24:05;;;;;;;1.80;0.82;;;;;;;17.34;52.90;99607.94;5057420;28;20115;-81
2021/05/18 12:26:34;;;;;;;2.70;1.08;;;;;;;17.43;52.55;99617.84;5065408;28;20044;-74
2021/05/18 12:29:05;;;;;;;2.05;1.00;;;;;;;17.66;53.06;99600.22;5066866;28;20397;-75
2021/05/18 12:31:35;;;;;;;3.90;1.23;;;;;;;17.85;53.60;99606.50;5073616;28;20477;-79
2021/05/18 12:34:05;;;;;;;1.25;0.93;;;;;;;17.76;51.92;99602.00;5069174;28;20041;-75
2021/05/18 12:36:47;;;;;;;2.53;1.10;;;;;;;17.87;52.46;99597.25;5062527;28;20439;-74
2021/05/18 12:39:17;;;;;;;1.90;1.15;;;;;;;17.80;52.05;99606.13;5059543;28;20116;-75
2021/05/18 12:41:55;;;;;;;3.33;1.50;;;;;;;17.66;52.77;99589.44;5069133;28;20067;-74
2021/05/18 12:44:29;;;;;;;2.15;0.93;;;;;;;17.81;51.89;99619.44;5061041;28;20394;-75
2021/05/18 12:47:03;;;;;;;2.45;1.30;;;;;;;18.01;53.22;99603.94;5061963;28;20406;-74
2021/05/18 12:49:33;;;;;;;2.78;1.00;;;;;;;18.30;51.78;99599.13;5070190;28;20046;-77
2021/05/18 12:52:08;;;;;;;2.45;1.45;;;;;;;18.35;51.26;99601.38;5058804;28;20090;-78
2021/05/18 12:54:43;;;;;;;4.30;1.30;;;;;;;18.09;52.07;99611.28;5074202;28;20574;-76
2021/05/18 12:57:16;;;;;;;3.33;1.60;;;;;;;18.05;51.31;99624.25;5061338;28;20446;-76
2021/05/18 13:00:06;;;;;;;3.42;1.70;;;;;;;18.18;52.11;99605.78;5071246;28;20049;-79
2021/05/18 13:02:37;;;;;;;5.00;1.95;;;;;;;18.21;51.84;99610.00;5070498;28;20103;-78
2021/05/18 13:05:17;;;;;;;2.63;1.50;;;;;;;18.03;53.25;99605.47;5073549;28;20040;-77
2021/05/18 13:08:21;;;;;;;2.47;1.50;;;;;;;18.35;52.42;99600.53;5056730;28;20116;-79
2021/05/18 13:10:55;;;;;;;3.65;1.30;;;;;;;18.06;51.50;99571.97;5073321;28;20080;-80
2021/05/18 13:13:24;;;;;;;3.13;1.15;;;;;;;18.65;51.42;99591.13;5057650;28;20044;-79
2021/05/18 13:16:08;;;;;;;3.10;1.30;;;;;;;18.59;50.16;99581.75;5069628;28;20106;-78
2021/05/18 13:18:39;;;;;;;4.45;1.80;;;;;;;18.68;51.23;99593.50;5062138;28;20090;-77
2021/05/18 13:21:07;;;;;;;3.67;1.50;;;;;;;18.46;51.56;99600.25;5059885;28;20119;-81
2021/05/18 13:23:43;;;;;;;2.33;1.20;;;;;;;18.29;51.06;99602.81;5069274;28;20055;-78
2021/05/18 13:26:27;;;;;;;2.63;1.20;;;;;;;18.10;51.44;99602.16;5058532;28;20040;-79
2021/05/18 13:29:00;;;;;;;2.58;1.30;;;;;;;17.86;51.81;99598.25;5060171;28;20049;-80
2021/05/18 13:31:30;;;;;;;4.35;1.35;;;;;;;17.67;57.56;99612.72;5068978;28;20046;-79
2021/05/18 13:33:58;;;;;;;3.28;1.52;;;;;;;16.96;62.99;99611.69;5056452;28;20049;-79
2021/05/18 13:36:48;;;;;;;2.05;1.27;;;;;;;16.85;61.31;99620.81;5069790;28;20475;-77
2021/05/18 13:39:18;;;;;;;4.22;1.48;;;;;;;16.98;64.12;99632.09;5072597;28;20478;-77
2021/05/18 13:41:47;;;;;;;2.40;1.45;;;;;;;16.78;65.51;99615.16;5056091;28;20079;-74
2021/05/18 13:44:17;;;;;;;4.38;1.60;;;;;;;16.98;64.91;99621.31;5066243;28;20464;-75
2021/05/18 13:46:47;;;;;;;5.03;1.88;;;;;;;16.84;67.09;99582.25;5063149;28;20080;-76
2021/05/18 13:49:16;;;;;;;7.60;2.08;;;;;;;17.53;66.52;99613.22;5057152;28;20061;-76
2021/05/18 13:51:45;;;;;;;2.30;1.40;;;;;;;17.66;61.54;99620.94;5069019;28;20056;-75
2021/05/18 13:54:30;;;;;;;4.47;1.67;;;;;;;17.54;61.79;99605.97;5060405;28;20037;-79
2021/05/18 13:56:59;;;;;;;2.00;1.42;;;;;;;17.82;59.01;99613.03;5060638;28;20051;-78
2021/05/18 13:59:33;;;;;;;4.00;1.42;;;;;;;17.69;62.27;99621.53;5069193;28;20051;-75
2021/05/18 14:02:01;;;;;;;4.28;1.80;;;;;;;17.58;60.09;99610.94;5065208;28;20060;-76
2021/05/18 14:04:29;;;;;;;2.60;1.55;;;;;;;17.48;60.00;99622.78;5072390;28;20072;-77
2021/05/18 14:10:36;;;;;;;10.15;1.85;;;;;;;17.17;63.67;99634.69;5002357;28;20049;-75
2021/05/18 14:13:05;;;;;;;5.90;1.90;;;;;;;16.01;69.57;99631.41;5059697;28;20067;-80
2021/05/18 14:15:33;;;;;;;5.50;1.95;;;;;;;15.84;69.64;99638.38;5067585;28;20058;-80
2021/05/18 14:18:01;;;;;;;3.63;1.27;;;;;;;15.68;69.87;99655.03;5056385;28;20041;-78
2021/05/18 14:20:29;;;;;;;3.35;1.45;;;;;;;15.29;67.89;99650.53;5064314;28;20049;-75
2021/05/18 14:22:56;;;;;;;3.50;1.23;;;;;;;15.25;68.68;99649.09;5064063;28;20048;-75
2021/05/18 14:25:25;;;;;;;2.35;1.30;;;;;;;15.21;70.88;99648.53;5058320;28;20057;-77
2021/05/18 14:28:02;;;;;;;4.95;1.65;;;;;;;15.09;72.08;99644.25;5060629;28;20099;-74
2021/05/18 14:30:33;;;;;;;4.18;1.75;;;;;;;15.24;74.54;99648.25;5075958;28;20099;-78
2021/05/18 14:33:01;;;;;;;3.90;1.70;;;;;;;15.17;73.49;99631.84;5076144;28;20048;-78
2021/05/18 14:35:29;;;;;;;3.53;1.98;;;;;;;15.36;73.50;99641.81;5059568;28;20041;-76
2021/05/18 14:38:04;;;;;;;3.33;1.90;;;;;;;15.60;75.43;99627.13;5059935;28;20431;-75
2021/05/18 14:43:54;;;;;;;5.32;2.50;;;;;;;15.90;76.24;99645.84;5061318;28;20045;-78
2021/05/18 14:46:27;;;;;;;3.95;2.00;;;;;;;15.63;74.02;99640.31;5063708;28;20036;-81
2021/05/18 14:54:55;;;;;;;5.40;2.00;;;;;;;16.32;69.28;99640.19;5067314;28;20041;-79
2021/05/18 14:57:23;;;;;;;5.68;2.70;;;;;;;16.55;69.96;99632.63;5071115;28;20070;-78
2021/05/18 14:59:51;;;;;;;3.33;2.33;;;;;;;16.73;66.87;99622.00;5058986;28;20051;-79
2021/05/18 15:02:26;;;;;;;5.43;2.15;;;;;;;16.82;71.19;99632.75;5069682;28;20040;-78
2021/05/18 15:04:54;;;;;;;3.50;2.20;;;;;;;16.84;71.33;99629.91;5075400;28;20052;-78
2021/05/18 15:07:22;;;;;;;3.45;2.30;;;;;;;16.78;68.95;99644.78;5059919;28;20041;-79
2021/05/18 15:09:52;;;;;;;6.95;2.40;;;;;;;16.79;69.27;99642.94;5074672;28;20048;-77
2021/05/18 15:12:21;;;;;;;5.43;2.53;;;;;;;16.66;69.02;99639.69;5068310;28;20111;-76
2021/05/18 15:14:49;;;;;;;4.38;2.03;;;;;;;16.63;69.06;99648.06;5065732;28;20696;-78
2021/05/18 15:17:17;;;;;;;4.30;2.13;;;;;;;16.64;67.78;99639.00;5060694;28;20052;-79
2021/05/18 15:19:51;;;;;;;5.78;2.08;;;;;;;16.46;69.08;99626.28;5072220;28;20116;-78
2021/05/18 15:22:19;;;;;;;4.63;1.98;;;;;;;16.52;69.34;99655.31;5062497;28;20098;-77
2021/05/18 15:24:47;;;;;;;4.32;2.17;;;;;;;16.50;69.88;99660.00;5064664;28;20044;-79
2021/05/18 15:27:15;;;;;;;5.03;2.20;;;;;;;16.40;70.52;99647.53;5069954;28;20467;-82
2021/05/18 15:29:44;;;;;;;3.40;1.73;;;;;;;16.62;69.30;99654.47;5058752;28;20102;-78
2021/05/18 15:32:14;;;;;;;5.13;1.90;;;;;;;16.70;70.00;99657.31;5075000;28;20064;-79
2021/05/18 15:34:42;;;;;;;6.10;2.10;;;;;;;16.60;67.60;99655.44;5064103;28;20547;-77
2021/05/18 15:37:12;;;;;;;8.13;1.88;;;;;;;16.65;68.17;99657.69;5067417;28;20580;-74
2021/05/18 15:39:40;;;;;;;4.60;2.13;;;;;;;16.59;67.61;99661.81;5058487;28;20045;-78
2021/05/18 15:42:09;;;;;;;4.93;1.90;;;;;;;16.48;65.84;99645.81;5069743;28;20053;-80
2021/05/18 15:44:37;;;;;;;5.18;1.55;;;;;;;16.53;65.82;99654.31;5064171;28;20117;-78
2021/05/18 15:47:05;;;;;;;2.58;1.48;;;;;;;16.50;64.87;99660.00;5062353;28;20053;-79
2021/05/18 15:49:33;;;;;;;3.75;1.50;;;;;;;16.65;62.05;99656.84;5072001;28;20055;-83
2021/05/18 15:52:01;;;;;;;7.13;1.70;;;;;;;16.56;65.13;99651.34;5059003;28;20045;-79
2021/05/18 15:54:30;;;;;;;2.75;1.40;;;;;;;16.31;63.50;99639.34;5066597;28;20040;-77
2021/05/18 15:56:59;;;;;;;2.63;1.30;;;;;;;16.25;63.13;99648.00;5066981;28;20048;-77
2021/05/18 15:59:27;;;;;;;3.25;1.48;;;;;;;16.09;64.70;99646.84;5058879;28;20045;-77
2021/05/18 16:01:55;;;;;;;3.38;1.40;;;;;;;16.20;64.76;99658.31;5067571;28;20366;-78
2021/05/18 16:04:26;;;;;;;3.00;1.42;;;;;;;16.32;61.25;99656.34;5063354;28;20464;-77
2021/05/18 16:06:54;;;;;;;2.25;1.38;;;;;;;16.24;62.15;99642.75;5063138;28;20047;-77